Time;durP1;ratioP1;P1;durP2;ratioP2;P2;SDS_P1;SDS_P2;PMS_P1;PMS_P2;Temp;Humidity;BMP_temperature;BMP_pressure;BME280_temperature;BME280_humidity;BME280_pressure;Samples;Min_cycle;Max_cycle;Signal;HPM_P1;HPM_P2
2021/05/17 00:01:11;;;;;;;4.63;2.50;;;;;10.00;99538.00;;;;10524703;28;20230;-77
2021/05/17 00:06:14;;;;;;;6.70;2.67;;;;;9.90;99548.00;;;;10491344;28;20852;-77
2021/05/17 00:11:16;;;;;;;6.20;3.13;;;;;9.90;99547.00;;;;10490943;28;20275;-77
2021/05/17 00:16:18;;;;;;;9.57;3.57;;;;;9.90;99542.00;;;;10542096;28;20185;-77
2021/05/17 00:21:20;;;;;;;7.10;3.83;;;;;10.00;99540.00;;;;10524528;28;20239;-77
2021/05/17 00:26:22;;;;;;;14.87;6.00;;;;;10.00;99542.00;;;;10507773;28;20197;-77
2021/05/17 00:31:24;;;;;;;11.37;5.83;;;;;10.00;99540.00;;;;10524866;28;20703;-77
2021/05/17 00:36:27;;;;;;;11.97;6.00;;;;;10.00;99538.00;;;;10524297;28;20192;-77
2021/05/17 00:41:30;;;;;;;12.03;5.43;;;;;10.00;99537.00;;;;10507020;28;20196;-77
2021/05/17 00:46:40;;;;;;;13.23;6.07;;;;;9.80;99530.00;;;;10462233;28;20213;-77
2021/05/17 00:51:42;;;;;;;12.10;6.33;;;;;9.90;99521.00;;;;10464799;28;20214;-77
2021/05/17 00:56:44;;;;;;;12.73;5.10;;;;;9.90;99513.00;;;;10468959;28;20423;-78
2021/05/17 01:01:46;;;;;;;9.37;4.87;;;;;9.90;99509.00;;;;10471362;28;20699;-78
2021/05/17 01:06:53;;;;;;;6.90;4.10;;;;;10.00;99522.00;;;;10487295;28;20206;-78
2021/05/17 01:11:57;;;;;;;8.90;3.90;;;;;10.00;99506.00;;;;10469822;28;20220;-78
2021/05/17 01:17:02;;;;;;;6.03;2.77;;;;;10.00;99511.00;;;;10486784;28;20200;-78
2021/05/17 01:22:11;;;;;;;7.47;3.17;;;;;9.90;99504.00;;;;10487715;28;20534;-78
2021/05/17 01:27:14;;;;;;;9.20;3.20;;;;;9.90;99504.00;;;;10475613;28;20194;-78
2021/05/17 01:32:17;;;;;;;7.67;3.07;;;;;9.90;99501.00;;;;10485006;28;20206;-78
2021/05/17 01:37:23;;;;;;;3.30;2.70;;;;;9.90;99503.00;;;;10479214;28;20185;-78
2021/05/17 01:42:26;;;;;;;6.60;3.00;;;;;10.00;99501.00;;;;10495694;28;20202;-78
2021/05/17 01:47:30;;;;;;;8.70;3.73;;;;;10.10;99494.00;;;;10477630;28;20252;-78
2021/05/17 01:52:34;;;;;;;7.40;3.60;;;;;10.20;99498.00;;;;10494699;28;20210;-78
2021/05/17 01:57:37;;;;;;;8.67;3.50;;;;;10.20;99503.00;;;;10493612;28;20201;-78
2021/05/17 02:02:41;;;;;;;7.30;3.80;;;;;10.30;99501.00;;;;10510648;28;20285;-78
2021/05/17 02:07:55;;;;;;;8.20;3.33;;;;;10.40;99494.00;;;;10493441;28;20213;-78
2021/05/17 02:12:58;;;;;;;6.60;3.63;;;;;10.40;99502.00;;;;10492990;28;20717;-78
2021/05/17 02:18:07;;;;;;;6.70;3.67;;;;;10.40;99498.00;;;;10476862;28;20204;-78
2021/05/17 02:23:14;;;;;;;6.37;3.23;;;;;10.40;99503.00;;;;10492883;28;20190;-78
2021/05/17 02:28:18;;;;;;;7.23;2.80;;;;;10.40;99494.00;;;;10499751;28;20683;-78
2021/05/17 02:33:22;;;;;;;5.50;3.03;;;;;10.40;99497.00;;;;10550956;28;20680;-78
2021/05/17 02:38:25;;;;;;;5.77;3.13;;;;;10.40;99501.00;;;;10533290;28;20196;-78
2021/05/17 02:43:29;;;;;;;5.17;3.13;;;;;10.40;99489.00;;;;10533113;28;20197;-78
2021/05/17 02:48:41;;;;;;;6.60;2.67;;;;;10.30;99508.00;;;;10497579;28;20223;-78
2021/05/17 02:54:03;;;;;;;9.83;3.33;;;;;10.30;99503.00;;;;10515004;28;20213;-78
2021/05/17 02:59:05;;;;;;;11.27;3.30;;;;;10.30;99495.00;;;;10512895;28;20300;-77
2021/05/17 03:04:20;;;;;;;8.90;3.50;;;;;10.20;99511.00;;;;10494508;28;20197;-77
2021/05/17 03:09:25;;;;;;;11.83;3.90;;;;;10.20;99512.00;;;;10483540;28;20200;-77
2021/05/17 03:14:30;;;;;;;10.07;4.13;;;;;10.30;99513.00;;;;10541602;28;20255;-77
2021/05/17 03:19:38;;;;;;;13.27;4.73;;;;;10.30;99511.00;;;;10526326;28;20195;-77
2021/05/17 03:24:41;;;;;;;8.17;3.33;;;;;10.30;99521.00;;;;10492136;28;20205;-77
2021/05/17 03:29:43;;;;;;;9.43;3.57;;;;;10.30;99523.00;;;;10491545;28;20189;-77
2021/05/17 03:34:46;;;;;;;5.40;3.40;;;;;10.30;99528.00;;;;10525268;28;20205;-77
2021/05/17 03:39:50;;;;;;;6.40;3.10;;;;;10.30;99524.00;;;;10491242;28;20197;-77
2021/05/17 03:44:52;;;;;;;12.33;3.10;;;;;10.30;99526.00;;;;10492055;28;20556;-77
2021/05/17 03:49:54;;;;;;;6.60;2.47;;;;;10.30;99518.00;;;;10474432;28;20198;-77
2021/05/17 03:54:56;;;;;;;7.77;3.40;;;;;10.20;99519.00;;;;10511645;28;20212;-77
2021/05/17 03:59:58;;;;;;;6.33;2.37;;;;;10.20;99523.00;;;;10499119;28;20189;-77
2021/05/17 04:05:21;;;;;;;4.67;2.97;;;;;10.20;99530.00;;;;10498712;28;20217;-77
2021/05/17 04:15:43;;;;;;;8.13;2.87;;;;;10.20;99532.00;;;;10499312;28;20189;-77
2021/05/17 04:20:47;;;;;;;10.10;3.00;;;;;10.20;99533.00;;;;10499508;28;20247;-77
2021/05/17 04:25:49;;;;;;;8.30;3.33;;;;;10.30;99530.00;;;;10484901;28;20208;-77
2021/05/17 04:30:51;;;;;;;7.77;3.50;;;;;10.30;99534.00;;;;10505826;28;20208;-77
2021/05/17 04:35:54;;;;;;;11.20;3.67;;;;;10.30;99540.00;;;;10506414;28;20319;-77
2021/05/17 04:40:55;;;;;;;10.90;3.90;;;;;10.30;99546.00;;;;10489131;28;20197;-77
2021/05/17 04:45:57;;;;;;;8.93;3.50;;;;;10.50;99545.00;;;;10489804;28;20200;-77
2021/05/17 04:50:59;;;;;;;8.90;4.20;;;;;10.70;99546.00;;;;10506241;28;20219;-77
2021/05/17 04:56:01;;;;;;;8.00;2.67;;;;;10.80;99544.00;;;;10522936;28;20192;-77
2021/05/17 05:01:03;;;;;;;8.17;3.20;;;;;10.80;99545.00;;;;10497517;28;20247;-77
2021/05/17 05:06:06;;;;;;;6.57;3.03;;;;;10.90;99547.00;;;;10480971;28;20221;-77
2021/05/17 05:11:07;;;;;;;8.87;3.27;;;;;11.00;99546.00;;;;10499164;28;20209;-77
2021/05/17 05:16:09;;;;;;;6.97;2.90;;;;;11.20;99560.00;;;;10497958;28;20202;-77
2021/05/17 05:21:11;;;;;;;5.63;2.40;;;;;11.30;99549.00;;;;10517143;28;20198;-78
2021/05/17 05:36:18;;;;;;;10.10;3.93;;;;;10.40;99543.00;;;;10524853;28;20200;-78
2021/05/17 05:41:20;;;;;;;5.43;2.67;;;;;10.40;99538.00;;;;10505270;28;20192;-77
2021/05/17 05:46:22;;;;;;;7.23;3.13;;;;;10.30;99543.00;;;;10521582;28;20243;-77
2021/05/17 05:51:30;;;;;;;9.10;4.10;;;;;10.40;99541.00;;;;10521263;28;20213;-77
2021/05/17 05:56:32;;;;;;;12.57;4.23;;;;;10.90;99541.00;;;;10521207;28;20219;-77
2021/05/17 06:01:34;;;;;;;7.03;3.77;;;;;11.30;99534.00;;;;10503667;28;20686;-77
2021/05/17 06:06:36;;;;;;;8.03;3.80;;;;;11.20;99542.00;;;;10487639;28;20225;-77
2021/05/17 06:11:38;;;;;;;9.13;4.63;;;;;11.20;99544.00;;;;10487048;28;20205;-77
2021/05/17 06:16:40;;;;;;;9.80;3.77;;;;;11.60;99548.00;;;;10496832;28;20236;-78
2021/05/17 06:21:42;;;;;;;9.60;3.77;;;;;12.20;99555.00;;;;10465533;28;20190;-77
2021/05/17 06:26:44;;;;;;;5.73;3.57;;;;;12.90;99557.00;;;;10485511;28;20189;-77
2021/05/17 06:31:48;;;;;;;7.50;2.63;;;;;12.70;99562.00;;;;10470827;28;20214;-77
2021/05/17 06:36:50;;;;;;;9.97;3.23;;;;;13.30;99566.00;;;;10485243;28;20228;-77
2021/05/17 06:41:52;;;;;;;9.40;2.40;;;;;13.00;99560.00;;;;10485729;28;20239;-77
2021/05/17 06:46:54;;;;;;;11.83;2.80;;;;;12.90;99568.00;;;;10485596;28;20201;-77
2021/05/17 06:51:57;;;;;;;7.03;2.40;;;;;13.20;99567.00;;;;10479951;28;20273;-77
2021/05/17 07:02:20;;;;;;;8.43;2.43;;;;;12.30;99573.00;;;;10527600;28;20185;-77
2021/05/17 07:07:33;;;;;;;4.80;2.13;;;;;12.40;99567.00;;;;10511156;28;20270;-77
2021/05/17 07:12:36;;;;;;;3.97;2.33;;;;;12.20;99582.00;;;;10511132;28;20244;-78
2021/05/17 07:17:38;;;;;;;6.60;2.40;;;;;12.90;99584.00;;;;10530705;28;20643;-76
2021/05/17 07:28:04;;;;;;;5.40;2.20;;;;;13.00;99599.00;;;;10509806;28;20205;-77
2021/05/17 07:33:06;;;;;;;7.47;2.00;;;;;12.20;99588.00;;;;10476787;28;20217;-77
2021/05/17 07:38:08;;;;;;;4.73;2.20;;;;;11.80;99586.00;;;;10508843;28;20212;-76
2021/05/17 07:43:09;;;;;;;7.60;2.50;;;;;11.70;99583.00;;;;10508762;28;20204;-77
2021/05/17 07:48:20;;;;;;;8.03;2.87;;;;;11.70;99585.00;;;;10510472;28;20193;-77
2021/05/17 07:53:22;;;;;;;3.90;2.10;;;;;11.60;99590.00;;;;10508076;28;20239;-76
2021/05/17 07:58:24;;;;;;;6.20;1.93;;;;;11.60;99579.00;;;;10524627;28;20262;-77
2021/05/17 08:03:25;;;;;;;6.53;2.53;;;;;11.80;99571.00;;;;10466963;28;20262;-78
2021/05/17 08:08:34;;;;;;;2.27;2.07;;;;;11.90;99577.00;;;;10470825;28;20206;-77
2021/05/17 08:13:38;;;;;;;4.27;2.70;;;;;12.00;99583.00;;;;10488894;28;20213;-78
2021/05/17 08:18:57;;;;;;;7.30;2.80;;;;;12.20;99593.00;;;;10502321;28;20247;-78
2021/05/17 08:23:59;;;;;;;8.33;2.57;;;;;12.70;99579.00;;;;10491671;28;20197;-78
2021/05/17 08:29:02;;;;;;;9.63;3.23;;;;;13.10;99588.00;;;;10506083;28;20189;-77
2021/05/17 08:34:04;;;;;;;4.97;2.70;;;;;13.20;99602.00;;;;10511689;28;20209;-77
2021/05/17 08:39:07;;;;;;;7.27;2.30;;;;;12.70;99603.00;;;;10481106;28;20193;-79
2021/05/17 08:44:11;;;;;;;7.13;3.17;;;;;12.30;99602.00;;;;10497362;28;20716;-77
2021/05/17 08:49:14;;;;;;;7.33;3.27;;;;;12.40;99612.00;;;;10499000;28;20193;-77
2021/05/17 08:54:16;;;;;;;6.23;3.23;;;;;12.10;99623.00;;;;10472348;28;20216;-77
2021/05/17 08:59:20;;;;;;;7.53;3.47;;;;;12.20;99620.00;;;;10505430;28;20197;-77
2021/05/17 09:04:21;;;;;;;5.77;3.17;;;;;12.60;99627.00;;;;10504788;28;20215;-77
2021/05/17 09:09:32;;;;;;;7.67;3.30;;;;;14.00;99637.00;;;;10522108;28;20213;-76
2021/05/17 09:14:34;;;;;;;6.80;3.50;;;;;15.00;99649.00;;;;10539801;28;20209;-77
2021/05/17 09:19:40;;;;;;;9.30;3.90;;;;;16.20;99659.00;;;;10519245;28;20722;-76
2021/05/17 09:24:51;;;;;;;6.93;3.10;;;;;15.50;99676.00;;;;10476254;28;20251;-76
2021/05/17 09:29:56;;;;;;;4.03;2.50;;;;;15.20;99686.00;;;;10509040;28;20197;-77
2021/05/17 09:35:06;;;;;;;7.17;3.77;;;;;14.60;99706.00;;;;10505441;28;20675;-76
2021/05/17 09:40:26;;;;;;;6.13;4.27;;;;;14.80;99719.00;;;;10490335;28;20273;-78
2021/05/17 09:45:32;;;;;;;7.47;4.47;;;;;16.30;99717.00;;;;10506409;28;20193;-77
2021/05/17 09:51:01;;;;;;;5.93;5.23;;;;;16.30;99723.00;;;;10506815;28;20197;-77
2021/05/17 09:56:23;;;;;;;15.53;5.47;;;;;15.30;99738.00;;;;10494799;28;20197;-77
2021/05/17 10:01:28;;;;;;;12.97;5.60;;;;;14.80;99752.00;;;;10497185;28;20235;-77
2021/05/17 10:06:30;;;;;;;11.30;4.07;;;;;15.40;99742.00;;;;10518265;28;20263;-78
2021/05/17 10:11:32;;;;;;;10.50;4.60;;;;;15.70;99769.00;;;;10498321;28;20208;-77
2021/05/17 10:16:35;;;;;;;7.33;4.30;;;;;15.80;99782.00;;;;10532227;28;20185;-77
2021/05/17 10:21:37;;;;;;;10.13;4.93;;;;;15.70;99788.00;;;;10531513;28;20238;-77
2021/05/17 10:26:40;;;;;;;15.80;6.00;;;;;16.40;99793.00;;;;10490172;28;20202;-78
2021/05/17 10:31:52;;;;;;;15.47;6.13;;;;;17.90;99793.00;;;;10512152;28;20230;-77
2021/05/17 10:36:57;;;;;;;13.07;6.05;;;;;18.20;99801.00;;;;10508113;28;20196;-77
2021/05/17 10:47:28;;;;;;;13.48;4.18;;;;;17.60;99818.00;;;;10501240;28;20405;-78
2021/05/17 10:52:35;;;;;;;10.00;4.25;;;;;17.60;99831.00;;;;10520510;28;20209;-78
2021/05/17 11:03:16;;;;;;;11.25;3.88;;;;;20.00;99824.00;;;;10518920;28;20190;-78
2021/05/17 11:08:18;;;;;;;7.70;3.33;;;;;20.10;99835.00;;;;10523239;28;20221;-78
2021/05/17 11:13:22;;;;;;;12.35;2.85;;;;;18.00;99848.00;;;;10512125;28;20215;-79
2021/05/17 11:18:26;;;;;;;10.40;3.25;;;;;16.30;99863.00;;;;10478407;28;20553;-79
2021/05/17 11:23:31;;;;;;;8.98;3.42;;;;;14.40;99894.00;;;;10527256;28;20288;-79
2021/05/17 11:28:36;;;;;;;8.23;4.33;;;;;13.40;99916.00;;;;10510322;28;20224;-79
2021/05/17 11:33:55;;;;;;;9.87;4.47;;;;;13.50;99919.00;;;;10478537;28;20219;-78
2021/05/17 11:44:14;;;;;;;8.40;5.63;;;;;13.90;99925.00;;;;10503893;28;20200;-78
2021/05/17 11:49:22;;;;;;;13.93;8.60;;;;;15.60;99929.00;;;;10523978;28;20250;-77
2021/05/17 11:54:28;;;;;;;14.90;8.77;;;;;18.10;99930.00;;;;10480782;28;20216;-76
2021/05/17 11:59:31;;;;;;;11.48;7.88;;;;;17.90;99949.00;;;;10507744;28;20667;-76
2021/05/17 12:04:42;;;;;;;11.40;7.43;;;;;19.00;99940.00;;;;10507401;28;20542;-76
2021/05/17 12:09:43;;;;;;;6.20;4.47;;;;;18.00;99952.00;;;;10507852;28;20189;-77
2021/05/17 12:14:48;;;;;;;9.98;4.40;;;;;17.70;99966.00;;;;10525515;28;20209;-77
2021/05/17 12:19:55;;;;;;;6.82;4.35;;;;;17.70;99969.00;;;;10545082;28;20590;-77
2021/05/17 12:24:59;;;;;;;4.10;3.55;;;;;18.60;99968.00;;;;10511724;28;20211;-77
2021/05/17 12:30:04;;;;;;;8.90;3.50;;;;;18.60;99962.00;;;;10502256;28;20205;-77
2021/05/17 12:35:08;;;;;;;6.00;2.97;;;;;18.80;99972.00;;;;10488932;28;20206;-77
2021/05/17 12:40:11;;;;;;;5.75;2.90;;;;;19.60;99980.00;;;;10456022;28;20798;-78
2021/05/17 12:45:14;;;;;;;4.18;2.20;;;;;19.60;99981.00;;;;10507830;28;20198;-78
2021/05/17 12:50:19;;;;;;;4.60;2.67;;;;;19.60;99958.00;;;;10508949;28;20185;-78
2021/05/17 12:55:23;;;;;;;5.10;2.97;;;;;19.60;99972.00;;;;10518140;28;20221;-78
2021/05/17 13:00:45;;;;;;;7.28;3.33;;;;;20.30;99986.00;;;;10533049;28;20203;-78
2021/05/17 13:05:53;;;;;;;5.53;2.95;;;;;20.60;99998.00;;;;10515255;28;20238;-78
2021/05/17 13:11:00;;;;;;;8.77;4.25;;;;;20.40;99982.00;;;;10496897;28;20213;-78
2021/05/17 13:16:02;;;;;;;10.07;3.50;;;;;18.20;100017.00;;;;10485955;28;20213;-78
2021/05/17 13:21:09;;;;;;;5.85;3.22;;;;;20.40;100010.00;;;;10516146;28;20192;-78
2021/05/17 13:31:44;;;;;;;5.50;3.35;;;;;21.80;99990.00;;;;10512813;28;20201;-79
2021/05/17 13:36:46;;;;;;;3.97;3.20;;;;;23.40;99993.00;;;;10482208;28;20206;-78
2021/05/17 13:41:48;;;;;;;6.47;3.55;;;;;24.40;100011.00;;;;10519102;28;20371;-79
2021/05/17 13:46:53;;;;;;;8.60;6.13;;;;;25.20;100023.00;;;;10523510;28;20201;-78
2021/05/17 13:51:55;;;;;;;6.45;5.32;;;;;23.90;100025.00;;;;10540512;28;20211;-78
2021/05/17 13:56:57;;;;;;;4.88;3.55;;;;;27.00;100023.00;;;;10524045;28;20614;-78
2021/05/17 14:01:58;;;;;;;7.85;4.60;;;;;26.30;100019.00;;;;10507707;28;20188;-78
2021/05/17 14:07:01;;;;;;;6.60;4.57;;;;;24.70;100042.00;;;;10524405;28;20232;-79
2021/05/17 14:12:04;;;;;;;6.25;5.03;;;;;20.10;100073.00;;;;10505887;28;20295;-77
2021/05/17 14:17:06;;;;;;;7.95;6.72;;;;;18.00;100062.00;;;;10504391;28;20276;-78
2021/05/17 14:22:10;;;;;;;10.45;8.43;;;;;20.20;100074.00;;;;10511806;28;20220;-79
2021/05/17 14:27:12;;;;;;;11.57;7.57;;;;;23.00;100062.00;;;;10541466;28;20246;-78
2021/05/17 14:32:15;;;;;;;10.18;7.18;;;;;22.30;100088.00;;;;10540036;28;20211;-78
2021/05/17 14:37:17;;;;;;;10.32;7.20;;;;;18.00;100108.00;;;;10506683;28;20193;-79
2021/05/17 14:42:27;;;;;;;10.15;6.05;;;;;18.40;100096.00;;;;10507571;28;20209;-78
2021/05/17 14:47:32;;;;;;;8.35;6.38;;;;;22.50;100090.00;;;;10538701;28;20505;-78
2021/05/17 14:52:34;;;;;;;8.30;5.18;;;;;23.40;100110.00;;;;10522499;28;20213;-78
2021/05/17 14:57:36;;;;;;;9.18;4.28;;;;;21.90;100119.00;;;;10574423;28;20224;-78
2021/05/17 15:02:38;;;;;;;10.65;5.28;;;;;22.60;100131.00;;;;10558839;28;20201;-78
2021/05/17 15:07:41;;;;;;;8.75;5.43;;;;;18.60;100134.00;;;;10521105;28;20212;-78
2021/05/17 15:12:45;;;;;;;10.25;5.55;;;;;22.40;100109.00;;;;10537857;28;20266;-79
2021/05/17 15:17:48;;;;;;;8.45;5.50;;;;;25.30;100112.00;;;;10537882;28;20331;-79
2021/05/17 15:22:51;;;;;;;7.35;5.20;;;;;19.90;100152.00;;;;10537665;28;20197;-78
2021/05/17 15:27:53;;;;;;;9.93;5.38;;;;;23.50;100140.00;;;;10519940;28;20598;-78
2021/05/17 15:32:55;;;;;;;11.18;5.50;;;;;25.70;100143.00;;;;10503508;28;20210;-78
2021/05/17 15:38:12;;;;;;;9.25;5.03;;;;;26.20;100140.00;;;;10494653;28;20197;-78
2021/05/17 15:43:15;;;;;;;7.45;5.05;;;;;25.40;100157.00;;;;10497297;28;20649;-76
2021/05/17 15:48:16;;;;;;;11.82;6.03;;;;;23.40;100155.00;;;;10528835;28;20255;-76
2021/05/17 15:53:18;;;;;;;9.57;5.80;;;;;20.80;100182.00;;;;10476944;28;20209;-78
2021/05/17 15:58:21;;;;;;;12.18;5.72;;;;;19.00;100178.00;;;;10533943;28;20614;-78
2021/05/17 16:03:23;;;;;;;11.55;6.40;;;;;17.70;100193.00;;;;10510768;28;20182;-78
2021/05/17 16:08:24;;;;;;;9.75;5.50;;;;;16.50;100192.00;;;;10475482;28;20209;-77
2021/05/17 16:23:42;;;;;;;11.85;6.55;;;;;16.30;100211.00;;;;10499849;28;20189;-77
2021/05/17 16:28:45;;;;;;;9.97;6.40;;;;;16.10;100213.00;;;;10515374;28;20553;-78
2021/05/17 16:33:47;;;;;;;14.13;6.93;;;;;16.20;100216.00;;;;10508410;28;20209;-78
2021/05/17 16:38:49;;;;;;;14.90;6.17;;;;;17.20;100224.00;;;;10489613;28;20189;-77
2021/05/17 16:43:51;;;;;;;14.07;6.10;;;;;16.70;100225.00;;;;10491048;28;20649;-77
2021/05/17 16:49:02;;;;;;;11.73;6.10;;;;;17.00;100225.00;;;;10490502;28;20197;-78
2021/05/17 16:54:06;;;;;;;16.83;7.60;;;;;17.10;100231.00;;;;10478859;28;20252;-77
2021/05/17 16:59:10;;;;;;;16.80;7.43;;;;;17.20;100234.00;;;;10480978;28;20283;-78
2021/05/17 17:04:16;;;;;;;13.38;6.60;;;;;17.30;100233.00;;;;10510091;28;20232;-78
2021/05/17 17:09:19;;;;;;;12.90;6.38;;;;;16.90;100247.00;;;;10473403;28;20209;-78
2021/05/17 17:14:21;;;;;;;13.13;7.10;;;;;16.80;100256.00;;;;10506261;28;20684;-78
2021/05/17 17:19:23;;;;;;;15.65;6.40;;;;;16.40;100261.00;;;;10489639;28;20208;-77
2021/05/17 17:24:30;;;;;;;11.97;6.23;;;;;15.90;100273.00;;;;10524257;28;20218;-77
2021/05/17 17:29:36;;;;;;;12.70;6.23;;;;;15.40;100280.00;;;;10566230;28;20192;-77
2021/05/17 17:34:39;;;;;;;10.83;5.90;;;;;15.50;100277.00;;;;10469676;28;20791;-78
2021/05/17 17:39:42;;;;;;;13.50;6.20;;;;;15.90;100281.00;;;;10488773;28;20284;-78
2021/05/17 17:44:44;;;;;;;10.23;6.67;;;;;15.70;100291.00;;;;10489883;28;20197;-78
2021/05/17 17:49:46;;;;;;;12.80;5.83;;;;;15.20;100301.00;;;;10473821;28;20654;-78
2021/05/17 17:54:48;;;;;;;9.10;6.40;;;;;14.70;100318.00;;;;10501458;28;20209;-78
2021/05/17 17:59:50;;;;;;;9.80;5.67;;;;;14.30;100345.00;;;;10530986;28;20239;-78
2021/05/17 18:04:52;;;;;;;2.57;1.90;;;;;14.10;100348.00;;;;10489339;28;20296;-78
2021/05/17 18:09:54;;;;;;;2.87;1.50;;;;;13.80;100344.00;;;;10522718;28;20200;-78
2021/05/17 18:14:56;;;;;;;4.03;1.70;;;;;13.60;100359.00;;;;10530683;28;20201;-78
2021/05/17 18:19:58;;;;;;;6.23;2.93;;;;;13.40;100373.00;;;;10504935;28;20247;-77
2021/05/17 18:25:01;;;;;;;8.70;4.43;;;;;13.20;100375.00;;;;10526442;28;20640;-78
2021/05/17 18:30:04;;;;;;;6.53;3.97;;;;;13.20;100378.00;;;;10537269;28;20246;-78
2021/05/17 18:40:12;;;;;;;8.07;5.60;;;;;12.80;100386.00;;;;10536581;28;20193;-77
2021/05/17 18:45:28;;;;;;;8.53;5.30;;;;;12.60;100407.00;;;;10520081;28;20264;-77
2021/05/17 18:50:30;;;;;;;9.33;6.53;;;;;12.40;100421.00;;;;10503218;28;20559;-77
2021/05/17 18:55:31;;;;;;;11.33;7.87;;;;;12.30;100424.00;;;;10511574;28;20209;-77
2021/05/17 19:00:33;;;;;;;11.60;8.37;;;;;12.00;100424.00;;;;10493210;28;20198;-77
2021/05/17 19:05:35;;;;;;;18.23;9.40;;;;;11.80;100430.00;;;;10488457;28;20275;-77
2021/05/17 19:10:37;;;;;;;12.87;10.23;;;;;11.70;100427.00;;;;10503433;28;20653;-77
2021/05/17 19:15:39;;;;;;;14.50;10.80;;;;;11.60;100423.00;;;;10485469;28;20221;-77
2021/05/17 19:20:42;;;;;;;12.63;11.30;;;;;11.50;100432.00;;;;10504873;28;20259;-76
2021/05/17 19:25:46;;;;;;;14.43;10.93;;;;;11.40;100432.00;;;;10487024;28;20201;-76
2021/05/17 19:30:48;;;;;;;12.63;10.50;;;;;11.30;100424.00;;;;10508287;28;20189;-76
2021/05/17 19:35:50;;;;;;;10.57;8.20;;;;;11.20;100438.00;;;;10517096;28;20232;-76
2021/05/17 19:40:53;;;;;;;11.10;8.20;;;;;11.00;100430.00;;;;10508726;28;20261;-76
2021/05/17 19:45:54;;;;;;;9.67;8.23;;;;;10.90;100434.00;;;;10524219;28;20193;-76
2021/05/17 19:50:59;;;;;;;10.23;8.70;;;;;10.90;100437.00;;;;10508375;28;20189;-77
2021/05/17 19:56:01;;;;;;;11.73;7.80;;;;;10.90;100441.00;;;;10508239;28;20207;-77
2021/05/17 20:01:04;;;;;;;10.67;9.67;;;;;10.90;100435.00;;;;10483682;28;20190;-77
2021/05/17 20:06:05;;;;;;;13.70;10.20;;;;;10.90;100446.00;;;;10467311;28;20244;-77
2021/05/17 20:11:07;;;;;;;14.37;11.03;;;;;10.80;100440.00;;;;10466970;28;20331;-77
2021/05/17 20:16:09;;;;;;;13.43;11.00;;;;;10.80;100441.00;;;;10487472;28;21278;-77
2021/05/17 20:21:11;;;;;;;13.43;11.33;;;;;10.80;100437.00;;;;10508641;28;20222;-77
2021/05/17 20:26:13;;;;;;;14.90;9.17;;;;;10.80;100449.00;;;;10527376;28;20207;-77
2021/05/17 20:31:19;;;;;;;6.87;6.17;;;;;10.60;100456.00;;;;10511386;28;20196;-77
2021/05/17 20:36:21;;;;;;;6.87;5.87;;;;;10.50;100453.00;;;;10483688;28;20271;-77
2021/05/17 20:41:24;;;;;;;5.40;4.20;;;;;10.50;100468.00;;;;10465060;28;20240;-77
2021/05/17 20:46:27;;;;;;;7.20;5.40;;;;;10.40;100459.00;;;;10481595;28;20197;-77
2021/05/17 20:51:29;;;;;;;6.37;5.70;;;;;10.30;100458.00;;;;10464730;28;20766;-77
2021/05/17 20:56:32;;;;;;;4.00;3.60;;;;;10.30;100453.00;;;;10525542;28;20334;-77
2021/05/17 21:01:34;;;;;;;4.33;3.87;;;;;10.20;100457.00;;;;10522196;28;20194;-77
2021/05/17 21:06:37;;;;;;;6.10;3.57;;;;;10.20;100450.00;;;;10488342;28;20216;-77
2021/05/17 21:11:39;;;;;;;6.27;3.00;;;;;10.20;100466.00;;;;10505261;28;20212;-77
2021/05/17 21:16:41;;;;;;;3.40;3.10;;;;;10.20;100465.00;;;;10521554;28;20749;-77
2021/05/17 21:21:43;;;;;;;5.27;3.40;;;;;10.10;100464.00;;;;10522597;28;20193;-77
2021/05/17 21:26:45;;;;;;;5.53;3.57;;;;;10.10;100465.00;;;;10521935;28;20693;-77
2021/05/17 21:31:46;;;;;;;6.00;4.43;;;;;10.10;100465.00;;;;10506469;28;20197;-77
2021/05/17 21:36:48;;;;;;;10.83;4.90;;;;;10.20;100476.00;;;;10505523;28;20263;-77
2021/05/17 21:41:50;;;;;;;5.87;4.43;;;;;10.20;100475.00;;;;10520471;28;20200;-77
2021/05/17 21:46:52;;;;;;;8.23;5.10;;;;;10.20;100478.00;;;;10504081;28;20224;-77
2021/05/17 21:51:54;;;;;;;6.27;4.67;;;;;10.30;100487.00;;;;10524807;28;20185;-77
2021/05/17 21:56:56;;;;;;;7.23;6.03;;;;;10.30;100493.00;;;;10532762;28;20564;-78
2021/05/17 22:01:58;;;;;;;8.63;6.57;;;;;10.30;100491.00;;;;10554592;28;20199;-78
2021/05/17 22:07:01;;;;;;;8.83;7.00;;;;;10.30;100492.00;;;;10519792;28;20220;-78
2021/05/17 22:12:04;;;;;;;9.27;6.10;;;;;10.40;100491.00;;;;10537373;28;20211;-78
2021/05/17 22:17:06;;;;;;;8.90;6.90;;;;;10.40;100499.00;;;;10534873;28;20595;-78
2021/05/17 22:22:08;;;;;;;9.47;6.73;;;;;10.40;100506.00;;;;10534273;28;20617;-78
2021/05/17 22:27:10;;;;;;;8.40;6.73;;;;;10.40;100502.00;;;;10534423;28;20193;-78
2021/05/17 22:32:11;;;;;;;8.40;6.97;;;;;10.40;100507.00;;;;10533278;28;20200;-78
2021/05/17 22:37:13;;;;;;;7.30;6.20;;;;;10.40;100510.00;;;;10516632;28;20220;-78
2021/05/17 22:42:16;;;;;;;8.97;7.10;;;;;10.30;100508.00;;;;10551096;28;20189;-78
2021/05/17 22:47:18;;;;;;;7.53;6.80;;;;;10.20;100515.00;;;;10517095;28;20200;-78
2021/05/17 22:52:20;;;;;;;7.93;6.80;;;;;10.20;100509.00;;;;10516934;28;20193;-78
2021/05/17 22:57:23;;;;;;;8.50;6.20;;;;;10.20;100508.00;;;;10483688;28;20214;-77
2021/05/17 23:02:24;;;;;;;13.93;6.83;;;;;10.30;100505.00;;;;10475296;28;20185;-78
2021/05/17 23:07:26;;;;;;;15.90;7.87;;;;;10.30;100517.00;;;;10510580;28;20202;-78
2021/05/17 23:12:28;;;;;;;22.70;8.37;;;;;10.30;100513.00;;;;10475974;28;20200;-79
2021/05/17 23:17:30;;;;;;;18.23;8.70;;;;;10.30;100516.00;;;;10455612;28;20214;-77
2021/05/17 23:22:36;;;;;;;21.23;8.63;;;;;10.30;100510.00;;;;10486179;28;20197;-77
2021/05/17 23:33:03;;;;;;;19.53;7.30;;;;;10.20;100520.00;;;;10495937;28;20545;-77
2021/05/17 23:38:06;;;;;;;25.40;8.67;;;;;10.20;100512.00;;;;10452760;28;20196;-77
2021/05/17 23:43:09;;;;;;;19.27;7.70;;;;;10.20;100515.00;;;;10484425;28;20202;-77
2021/05/17 23:48:10;;;;;;;32.43;8.10;;;;;10.20;100516.00;;;;10467143;28;20197;-77
2021/05/17 23:53:13;;;;;;;20.70;7.40;;;;;10.10;100520.00;;;;10467763;28;20245;-77
2021/05/17 23:58:16;;;;;;;23.77;7.97;;;;;10.10;100523.00;;;;10482300;28;20274;-77
